createdAt,value
2024-02-08T00:00:27.529Z,8.9
2024-02-08T00:02:54.371Z,8.9
2024-02-08T00:05:21.225Z,8.9
2024-02-08T00:07:48.056Z,8.9
2024-02-08T00:10:14.874Z,8.9
2024-02-08T00:12:40.285Z,8.9
2024-02-08T00:15:07.103Z,8.9
2024-02-08T00:17:33.987Z,9
2024-02-08T00:20:00.822Z,9
2024-02-08T00:22:27.641Z,9
2024-02-08T00:24:54.481Z,9
2024-02-08T00:27:21.308Z,9.1
2024-02-08T00:29:48.164Z,9.2
2024-02-08T00:34:41.843Z,9.3
2024-02-08T00:37:08.677Z,9.2
2024-02-08T00:39:35.534Z,9.3
2024-02-08T00:42:02.350Z,9.4
2024-02-08T00:44:29.195Z,9.4
2024-02-08T00:46:56.047Z,9.4
2024-02-08T00:49:21.456Z,9.4
2024-02-08T00:51:48.287Z,9.5
2024-02-08T00:54:15.134Z,9.5
2024-02-08T00:56:41.970Z,9.5
2024-02-08T00:59:08.806Z,9.5
2024-02-08T01:01:35.643Z,9.5
2024-02-08T01:04:02.491Z,9.5
2024-02-08T01:06:29.343Z,9.5
2024-02-08T01:08:56.169Z,9.6
2024-02-08T01:11:23.014Z,9.6
2024-02-08T01:13:49.850Z,9.6
2024-02-08T01:16:16.697Z,9.7
2024-02-08T01:18:43.538Z,9.7
2024-02-08T01:21:10.379Z,9.7
2024-02-08T01:23:35.808Z,9.7
2024-02-08T01:26:02.624Z,9.7
2024-02-08T01:28:29.470Z,9.7
2024-02-08T01:30:56.309Z,9.7
2024-02-08T01:33:23.145Z,9.8
2024-02-08T01:35:49.981Z,9.8
2024-02-08T01:38:16.832Z,9.8
2024-02-08T01:40:43.669Z,9.8
2024-02-08T01:43:10.502Z,9.7
2024-02-08T01:45:37.353Z,9.8
2024-02-08T01:48:04.191Z,9.8
2024-02-08T01:50:31.024Z,9.9
2024-02-08T01:52:57.854Z,9.9
2024-02-08T01:55:23.284Z,9.8
2024-02-08T01:57:50.122Z,9.9
2024-02-08T02:00:16.972Z,9.9
2024-02-08T02:02:43.812Z,9.9
2024-02-08T02:05:10.636Z,9.9
2024-02-08T02:07:37.479Z,9.9
2024-02-08T02:10:04.365Z,10
2024-02-08T02:12:31.164Z,10
2024-02-08T02:14:57.989Z,10
2024-02-08T02:17:24.851Z,10
2024-02-08T02:19:51.689Z,10
2024-02-08T02:22:18.546Z,10
2024-02-08T02:24:45.366Z,10.1
2024-02-08T02:27:10.774Z,10.1
2024-02-08T02:29:37.619Z,10.1
2024-02-08T02:32:04.461Z,10.1
2024-02-08T02:34:31.303Z,10.1
2024-02-08T02:36:58.149Z,10.1
2024-02-08T02:39:24.979Z,10.1
2024-02-08T02:41:51.817Z,10.1
2024-02-08T02:44:18.653Z,10.1
2024-02-08T02:46:45.492Z,10.2
2024-02-08T02:49:12.343Z,10.1
2024-02-08T02:51:39.181Z,10.1
2024-02-08T02:54:06.019Z,10.1
2024-02-08T02:56:32.863Z,10.1
2024-02-08T02:58:58.277Z,10.2
2024-02-08T03:01:25.106Z,10.2
2024-02-08T03:03:51.960Z,10.2
2024-02-08T03:06:18.783Z,10.2
2024-02-08T03:08:45.637Z,10.3
2024-02-08T03:11:12.463Z,10.3
2024-02-08T03:13:39.319Z,10.2
2024-02-08T03:16:06.149Z,10.2
2024-02-08T03:18:33.004Z,10.2
2024-02-08T03:20:59.829Z,10.2
2024-02-08T03:23:26.681Z,10.2
2024-02-08T03:25:53.508Z,10.3
2024-02-08T03:28:20.350Z,10.3
2024-02-08T03:30:45.761Z,10.2
2024-02-08T03:33:12.624Z,10.3
2024-02-08T03:35:39.447Z,10.3
2024-02-08T03:38:06.280Z,10.3
2024-02-08T03:40:33.130Z,10.3
2024-02-08T03:42:59.966Z,10.3
2024-02-08T03:45:26.803Z,10.3
2024-02-08T03:47:53.644Z,10.3
2024-02-08T03:50:20.483Z,10.3
2024-02-08T03:52:47.324Z,10.3
2024-02-08T03:55:14.175Z,10.3
2024-02-08T03:57:41.008Z,10.3
2024-02-08T04:00:07.848Z,10.3
2024-02-08T04:02:34.702Z,10.3
2024-02-08T04:05:00.103Z,10.3
2024-02-08T04:07:26.949Z,10.3
2024-02-08T04:09:53.792Z,10.3
2024-02-08T04:12:20.605Z,10.3
2024-02-08T04:14:47.468Z,10.3
2024-02-08T04:17:14.299Z,10.3
2024-02-08T04:19:41.136Z,10.3
2024-02-08T04:22:07.988Z,10.3
2024-02-08T04:24:34.821Z,10.3
2024-02-08T04:27:01.657Z,10.3
2024-02-08T04:29:28.499Z,10.3
2024-02-08T04:31:55.337Z,10.3
2024-02-08T04:34:22.183Z,10.2
2024-02-08T04:36:47.595Z,10.2
2024-02-08T04:39:14.446Z,10.1
2024-02-08T04:41:41.278Z,10.1
2024-02-08T04:44:08.124Z,10
2024-02-08T04:46:34.968Z,10
2024-02-08T04:49:01.804Z,10
2024-02-08T04:51:28.665Z,9.9
2024-02-08T04:53:55.486Z,9.9
2024-02-08T04:56:22.327Z,9.9
2024-02-08T04:58:49.161Z,9.8
2024-02-08T05:01:15.998Z,9.8
2024-02-08T05:03:42.841Z,9.8
2024-02-08T05:06:09.676Z,9.7
2024-02-08T05:08:35.103Z,9.7
2024-02-08T05:11:01.934Z,9.7
2024-02-08T05:13:28.774Z,9.6
2024-02-08T05:15:55.617Z,9.6
2024-02-08T05:18:22.479Z,9.6
2024-02-08T05:20:49.284Z,9.5
2024-02-08T05:23:16.260Z,9.5
2024-02-08T05:25:42.976Z,9.5
2024-02-08T05:28:09.826Z,9.5
2024-02-08T05:30:36.667Z,9.5
2024-02-08T05:33:03.487Z,9.5
2024-02-08T05:35:30.338Z,9.4
2024-02-08T05:37:57.172Z,9.4
2024-02-08T05:40:23.992Z,9.4
2024-02-08T05:42:49.394Z,9.4
2024-02-08T05:45:16.238Z,9.3
2024-02-08T05:47:43.088Z,9.3
2024-02-08T05:50:09.925Z,9.3
2024-02-08T05:52:36.753Z,9.3
2024-02-08T05:55:03.585Z,9.3
2024-02-08T05:57:30.439Z,9.3
2024-02-08T05:59:57.273Z,9.3
2024-02-08T06:02:24.120Z,9.3
2024-02-08T06:04:50.951Z,9.3
2024-02-08T06:07:17.807Z,9.3
2024-02-08T06:09:44.636Z,9.4
2024-02-08T06:12:11.477Z,9.4
2024-02-08T06:14:36.885Z,9.4
2024-02-08T06:17:03.728Z,9.4
2024-02-08T06:19:30.579Z,9.4
2024-02-08T06:21:57.416Z,9.4
2024-02-08T06:24:24.256Z,9.4
2024-02-08T06:26:51.091Z,9.4
2024-02-08T06:29:17.939Z,9.4
2024-02-08T06:31:44.775Z,9.4
2024-02-08T06:34:11.616Z,9.4
2024-02-08T06:36:38.445Z,9.4
2024-02-08T06:39:05.300Z,9.4
2024-02-08T06:41:32.133Z,9.4
2024-02-08T06:43:58.985Z,9.4
2024-02-08T06:46:24.403Z,9.4
2024-02-08T06:48:51.238Z,9.4
2024-02-08T06:51:18.066Z,9.4
2024-02-08T06:53:44.909Z,9.4
2024-02-08T06:56:11.753Z,9.5
2024-02-08T06:58:38.623Z,9.5
2024-02-08T07:01:05.437Z,9.5
2024-02-08T07:03:32.310Z,9.5
2024-02-08T07:05:59.115Z,9.5
2024-02-08T07:08:26.099Z,9.6
2024-02-08T07:10:52.792Z,9.6
2024-02-08T07:13:19.620Z,9.6
2024-02-08T07:15:46.470Z,9.6
2024-02-08T07:18:13.311Z,9.6
2024-02-08T07:23:06.988Z,9.6
2024-02-08T07:25:33.779Z,9.6
2024-02-08T07:28:00.581Z,9.6
2024-02-08T07:30:27.390Z,9.6
2024-02-08T07:32:54.196Z,9.6
2024-02-08T07:35:21.024Z,9.6
2024-02-08T07:37:46.568Z,9.6
2024-02-08T07:40:13.340Z,9.7
2024-02-08T07:42:40.174Z,9.7
2024-02-08T07:45:07.002Z,9.7
2024-02-08T07:47:33.844Z,9.7
2024-02-08T07:50:00.689Z,9.8
2024-02-08T07:54:54.364Z,9.8
2024-02-08T07:57:21.206Z,9.8
2024-02-08T07:59:48.062Z,9.9
2024-02-08T08:02:14.877Z,9.8
2024-02-08T08:04:41.788Z,9.9
2024-02-08T08:07:08.566Z,9.9
2024-02-08T08:09:33.975Z,9.9
2024-02-08T08:12:00.819Z,9.9
2024-02-08T08:16:54.602Z,10
2024-02-08T08:19:21.346Z,10
2024-02-08T08:21:48.182Z,10
2024-02-08T08:24:15.022Z,10
2024-02-08T08:26:41.860Z,10.1
2024-02-08T08:29:08.696Z,10.1
2024-02-08T08:31:35.571Z,10.1
2024-02-08T08:34:02.389Z,10.2
2024-02-08T08:36:29.223Z,10.2
2024-02-08T08:38:56.052Z,10.4
2024-02-08T08:41:21.487Z,10.5
2024-02-08T08:43:48.318Z,10.5
2024-02-08T08:46:15.167Z,10.6
2024-02-08T08:48:42.009Z,10.7
2024-02-08T08:51:08.844Z,10.8
2024-02-08T08:53:35.675Z,10.8
2024-02-08T08:56:02.527Z,10.8
2024-02-08T08:58:29.432Z,10.8
2024-02-08T09:00:56.197Z,10.9
2024-02-08T09:03:23.115Z,10.9
2024-02-08T09:05:49.870Z,10.9
2024-02-08T09:08:16.719Z,10.9
2024-02-08T09:13:10.392Z,10.9
2024-02-08T09:15:35.809Z,11
2024-02-08T09:18:02.653Z,11
2024-02-08T09:20:29.490Z,11.1
2024-02-08T09:22:56.323Z,11.1
2024-02-08T09:25:23.189Z,11.1
2024-02-08T09:27:50.007Z,11.1
2024-02-08T09:30:16.844Z,11.1
2024-02-08T09:32:43.692Z,11.1
2024-02-08T09:35:10.528Z,11.1
2024-02-08T09:37:37.357Z,11.2
2024-02-08T09:40:04.194Z,11.2
2024-02-08T09:42:31.152Z,11.2
2024-02-08T09:44:57.875Z,11.3
2024-02-08T09:47:23.296Z,11.3
2024-02-08T09:49:50.137Z,11.4
2024-02-08T09:52:16.968Z,11.5
2024-02-08T09:54:43.823Z,11.6
2024-02-08T09:57:10.663Z,11.7
2024-02-08T09:59:37.490Z,11.8
2024-02-08T10:02:04.348Z,11.7
2024-02-08T10:04:31.172Z,11.8
2024-02-08T10:06:57.999Z,11.8
2024-02-08T10:09:24.849Z,11.9
2024-02-08T10:11:51.695Z,11.8
2024-02-08T10:14:18.523Z,11.8
2024-02-08T10:16:45.365Z,11.8
2024-02-08T10:19:10.779Z,11.8
2024-02-08T10:21:37.630Z,11.8
2024-02-08T10:24:04.460Z,11.9
2024-02-08T10:26:31.320Z,11.9
2024-02-08T10:28:58.187Z,12
2024-02-08T10:31:24.975Z,12
2024-02-08T10:33:51.817Z,11.9
2024-02-08T10:36:18.661Z,12
2024-02-08T10:38:45.499Z,11.9
2024-02-08T10:41:12.331Z,11.9
2024-02-08T10:43:39.175Z,11.9
2024-02-08T10:46:06.080Z,11.9
2024-02-08T10:48:32.861Z,11.9
2024-02-08T10:50:59.925Z,12
2024-02-08T10:53:26.728Z,12
2024-02-08T10:55:51.948Z,12
2024-02-08T10:58:18.805Z,12
2024-02-08T11:00:45.800Z,12
2024-02-08T11:03:12.497Z,12
2024-02-08T11:05:39.317Z,11.9
2024-02-08T11:08:06.204Z,11.9
2024-02-08T11:12:59.824Z,11.8
2024-02-08T11:15:26.725Z,11.7
2024-02-08T11:17:53.509Z,11.7
2024-02-08T11:20:20.331Z,11.7
2024-02-08T11:22:47.204Z,11.7
2024-02-08T11:25:14.158Z,11.8
2024-02-08T11:27:40.871Z,11.8
2024-02-08T11:30:07.696Z,11.8
2024-02-08T11:32:34.532Z,12
2024-02-08T11:35:01.408Z,12.1
2024-02-08T11:37:28.220Z,12.2
2024-02-08T11:39:53.650Z,12.2
2024-02-08T11:42:20.473Z,12.3
2024-02-08T11:44:47.470Z,12.3
2024-02-08T11:47:14.144Z,12.3
2024-02-08T11:49:40.991Z,12.4
2024-02-08T11:52:07.841Z,12.4
2024-02-08T11:54:34.678Z,12.4
2024-02-08T11:59:28.441Z,12.4
2024-02-08T12:01:55.251Z,12.4
2024-02-08T12:04:22.021Z,12.4
2024-02-08T12:09:15.710Z,12.5
2024-02-08T12:11:42.548Z,12.6
2024-02-08T12:14:09.369Z,12.6
2024-02-08T12:16:36.213Z,12.6
2024-02-08T12:19:03.050Z,12.6
2024-02-08T12:21:29.879Z,12.5
2024-02-08T12:23:56.825Z,12.6
2024-02-08T12:26:23.516Z,12.6
2024-02-08T12:28:50.363Z,12.7
2024-02-08T12:31:17.212Z,12.7
2024-02-08T12:33:44.049Z,12.7
2024-02-08T12:36:10.882Z,12.8
2024-02-08T12:38:37.695Z,12.9
2024-02-08T12:41:03.101Z,12.9
2024-02-08T12:43:30.006Z,12.9
2024-02-08T12:48:23.627Z,12.9
2024-02-08T12:50:50.511Z,13
2024-02-08T12:53:17.363Z,13
2024-02-08T12:55:44.146Z,13
2024-02-08T12:58:10.973Z,13
2024-02-08T13:00:37.823Z,13.1
2024-02-08T13:03:04.661Z,13.2
2024-02-08T13:05:31.528Z,13.3
2024-02-08T13:07:58.349Z,13.3
2024-02-08T13:10:25.185Z,13.4
2024-02-08T13:12:51.991Z,13.4
2024-02-08T13:15:17.404Z,13.4
2024-02-08T13:17:44.310Z,13.4
2024-02-08T13:20:11.087Z,13.4
2024-02-08T13:22:37.928Z,13.4
2024-02-08T13:25:04.773Z,13.5
2024-02-08T13:27:31.668Z,13.5
2024-02-08T13:29:58.450Z,13.4
2024-02-08T13:32:25.287Z,13.4
2024-02-08T13:34:52.150Z,13.4
2024-02-08T13:37:18.974Z,13.5
2024-02-08T13:39:45.874Z,13.5
2024-02-08T13:42:12.647Z,13.5
2024-02-08T13:47:06.352Z,13.5
2024-02-08T13:49:31.778Z,13.5
2024-02-08T13:51:58.627Z,13.5
2024-02-08T13:54:25.404Z,13.5
2024-02-08T13:56:52.455Z,13.6
2024-02-08T13:59:19.442Z,13.6
2024-02-08T14:01:45.926Z,13.6
2024-02-08T14:04:13.124Z,13.6
2024-02-08T14:06:39.886Z,13.6
2024-02-08T14:09:06.449Z,13.6
2024-02-08T14:11:33.441Z,13.5
2024-02-08T14:14:00.299Z,13.5
2024-02-08T14:16:27.340Z,13.5
2024-02-08T14:18:53.825Z,13.5
2024-02-08T14:21:19.235Z,13.5
2024-02-08T14:23:46.273Z,13.5
2024-02-08T14:26:13.219Z,13.5
2024-02-08T14:28:40.057Z,13.5
2024-02-08T14:31:06.951Z,13.5
2024-02-08T14:33:33.418Z,13.5
2024-02-08T14:36:00.450Z,13.5
2024-02-08T14:38:27.440Z,13.5
2024-02-08T14:43:20.788Z,13.4
2024-02-08T14:45:48.045Z,13.4
2024-02-08T14:48:14.772Z,13.3
2024-02-08T14:50:41.623Z,13.3
2024-02-08T14:53:07.090Z,13.3
2024-02-08T14:55:33.864Z,13.2
2024-02-08T14:58:00.655Z,13.3
2024-02-08T15:00:27.366Z,13.2
2024-02-08T15:02:54.256Z,13.3
2024-02-08T15:05:20.953Z,13.2
2024-02-08T15:07:47.763Z,13.2
2024-02-08T15:10:14.758Z,13.2
2024-02-08T15:12:41.739Z,13.2
2024-02-08T15:15:08.549Z,13.2
2024-02-08T15:17:35.306Z,13.2
2024-02-08T15:20:01.952Z,13.1
2024-02-08T15:22:28.956Z,13.1
2024-02-08T15:24:54.375Z,13.1
2024-02-08T15:27:21.298Z,13.1
2024-02-08T15:29:48.081Z,13.1
2024-02-08T15:32:15.046Z,13.1
2024-02-08T15:34:41.681Z,13
2024-02-08T15:37:08.687Z,13
2024-02-08T15:39:35.581Z,13
2024-02-08T15:42:02.304Z,13
2024-02-08T15:44:29.129Z,13
2024-02-08T15:46:55.991Z,13
2024-02-08T15:49:21.362Z,13
2024-02-08T15:51:48.453Z,12.9
2024-02-08T15:54:15.156Z,12.9
2024-02-08T15:56:42.044Z,12.9
2024-02-08T15:59:08.556Z,12.9
2024-02-08T16:01:35.555Z,12.9
2024-02-08T16:04:02.490Z,12.9
2024-02-08T16:06:29.075Z,12.9
2024-02-08T16:08:56.110Z,12.9
2024-02-08T16:11:23.115Z,12.9
2024-02-08T16:13:49.877Z,12.8
2024-02-08T16:16:16.620Z,12.8
2024-02-08T16:18:43.640Z,12.7
2024-02-08T16:21:08.934Z,12.6
2024-02-08T16:23:35.792Z,12.6
2024-02-08T16:26:02.762Z,12.5
2024-02-08T16:28:29.571Z,12.5
2024-02-08T16:33:23.033Z,12.5
2024-02-08T16:35:49.708Z,12.5
2024-02-08T16:38:16.883Z,12.5
2024-02-08T16:40:43.689Z,12.5
2024-02-08T16:43:10.437Z,12.4
2024-02-08T16:45:37.405Z,12.4
2024-02-08T16:48:04.228Z,12.4
2024-02-08T16:50:30.768Z,12.5
2024-02-08T16:52:56.521Z,12.4
2024-02-08T16:55:23.384Z,12.4
2024-02-08T17:00:16.891Z,12.3
2024-02-08T17:05:10.684Z,12.3
2024-02-08T17:07:36.002Z,12.3
2024-02-08T17:10:02.987Z,12.3
2024-02-08T17:12:29.810Z,12.2
2024-02-08T17:14:56.697Z,12.2
2024-02-08T17:17:23.456Z,12.2
2024-02-08T17:19:48.835Z,12.2
2024-02-08T17:22:15.643Z,12.2
2024-02-08T17:24:42.781Z,12.2
2024-02-08T17:27:09.310Z,12.1
2024-02-08T17:29:36.186Z,12.1
2024-02-08T17:32:03.131Z,12.1
2024-02-08T17:34:29.859Z,12.2
2024-02-08T17:36:56.655Z,12.2
2024-02-08T17:39:23.419Z,12.2
2024-02-08T17:41:48.937Z,12.2
2024-02-08T17:44:15.692Z,12.3
2024-02-08T17:46:42.602Z,12.2
2024-02-08T17:49:09.349Z,12.2
2024-02-08T17:51:35.969Z,12.3
2024-02-08T17:54:01.522Z,12.3
2024-02-08T17:56:28.491Z,12.2
2024-02-08T17:58:55.287Z,12.2
2024-02-08T18:01:22.166Z,12.3
2024-02-08T18:03:49.039Z,12.2
2024-02-08T18:06:15.624Z,12.2
2024-02-08T18:08:42.635Z,12.1
2024-02-08T18:11:09.590Z,12
2024-02-08T18:13:36.438Z,11.9
2024-02-08T18:16:02.939Z,11.9
2024-02-08T18:18:30.001Z,11.9
2024-02-08T18:20:56.618Z,11.8
2024-02-08T18:23:23.758Z,11.8
2024-02-08T18:25:49.211Z,11.8
2024-02-08T18:28:16.037Z,11.8
2024-02-08T18:30:42.906Z,11.8
2024-02-08T18:33:09.689Z,11.8
2024-02-08T18:35:36.359Z,11.8
2024-02-08T18:38:03.330Z,11.9
2024-02-08T18:40:30.199Z,12
2024-02-08T18:42:57.000Z,12
2024-02-08T18:45:23.582Z,12.1
2024-02-08T18:47:50.745Z,12
2024-02-08T18:50:17.261Z,12
2024-02-08T18:52:44.109Z,11.9
2024-02-08T18:55:11.082Z,11.8
2024-02-08T18:57:38.101Z,11.8
2024-02-08T19:00:03.503Z,11.7
2024-02-08T19:02:30.218Z,11.6
2024-02-08T19:04:57.227Z,11.6
2024-02-08T19:07:23.965Z,11.5
2024-02-08T19:09:50.647Z,11.4
2024-02-08T19:12:17.431Z,11.3
2024-02-08T19:14:44.619Z,11.3
2024-02-08T19:17:11.231Z,11.3
2024-02-08T19:19:37.927Z,11.2
2024-02-08T19:22:04.996Z,11.1
2024-02-08T19:24:31.805Z,11
2024-02-08T19:26:58.417Z,10.9
2024-02-08T19:29:25.413Z,10.9
2024-02-08T19:31:52.376Z,10.8
2024-02-08T19:34:18.879Z,10.7
2024-02-08T19:36:44.354Z,10.6
2024-02-08T19:39:11.348Z,10.5
2024-02-08T19:41:37.972Z,10.5
2024-02-08T19:44:05.129Z,10.5
2024-02-08T19:46:31.807Z,10.4
2024-02-08T19:48:58.743Z,10.4
2024-02-08T19:51:25.352Z,10.4
2024-02-08T19:53:52.458Z,10.3
2024-02-08T19:56:19.055Z,10.3
2024-02-08T19:58:46.220Z,10.3
2024-02-08T20:01:13.024Z,10.3
2024-02-08T20:03:39.813Z,10.4
2024-02-08T20:06:06.496Z,10.3
2024-02-08T20:08:32.105Z,10.3
2024-02-08T20:10:59.061Z,10.2
2024-02-08T20:13:25.729Z,10.2
2024-02-08T20:15:52.624Z,10.1
2024-02-08T20:18:19.379Z,10.1
2024-02-08T20:20:46.100Z,10.1
2024-02-08T20:23:13.095Z,10.2
2024-02-08T20:25:39.784Z,10.1
2024-02-08T20:28:06.562Z,10.1
2024-02-08T20:30:33.428Z,10.1
2024-02-08T20:33:00.340Z,10.1
2024-02-08T20:35:27.274Z,10.1
2024-02-08T20:37:54.010Z,10.3
2024-02-08T20:40:20.857Z,10.4
2024-02-08T20:42:47.684Z,10.5
2024-02-08T20:45:12.924Z,10.5
2024-02-08T20:47:39.935Z,10.4
2024-02-08T20:50:06.651Z,10.4
2024-02-08T20:52:33.722Z,10.3
2024-02-08T20:55:00.389Z,10.1
2024-02-08T20:57:27.352Z,9.9
2024-02-08T20:59:54.052Z,9.8
2024-02-08T21:02:21.002Z,9.8
2024-02-08T21:04:47.642Z,9.8
2024-02-08T21:07:14.578Z,9.8
2024-02-08T21:09:41.426Z,9.9
2024-02-08T21:12:08.269Z,9.9
2024-02-08T21:14:35.030Z,9.9
2024-02-08T21:17:01.820Z,9.9
2024-02-08T21:19:27.517Z,9.8
2024-02-08T21:21:54.266Z,9.7
2024-02-08T21:24:20.975Z,9.7
2024-02-08T21:26:47.973Z,9.6
2024-02-08T21:29:14.827Z,9.5
2024-02-08T21:31:41.414Z,9.5
2024-02-08T21:34:08.307Z,9.5
2024-02-08T21:36:35.088Z,9.5
2024-02-08T21:39:01.937Z,9.5
2024-02-08T21:41:29.005Z,9.5
2024-02-08T21:43:55.788Z,9.5
2024-02-08T21:46:22.447Z,9.5
2024-02-08T21:48:49.574Z,9.5
2024-02-08T21:51:14.884Z,9.5
2024-02-08T21:53:41.796Z,9.5
2024-02-08T21:56:08.636Z,9.5
2024-02-08T21:58:35.554Z,9.5
2024-02-08T22:03:28.902Z,9.4
2024-02-08T22:05:55.958Z,9.4
2024-02-08T22:08:22.743Z,9.4
2024-02-08T22:10:49.551Z,9.4
2024-02-08T22:13:16.419Z,9.4
2024-02-08T22:15:43.192Z,9.4
2024-02-08T22:18:10.073Z,9.4
2024-02-08T22:20:36.916Z,9.4
2024-02-08T22:23:02.239Z,9.4
2024-02-08T22:25:29.054Z,9.5
2024-02-08T22:27:55.890Z,9.5
2024-02-08T22:30:22.753Z,9.5
2024-02-08T22:32:49.569Z,9.5
2024-02-08T22:35:16.443Z,9.5
2024-02-08T22:37:43.237Z,9.5
2024-02-08T22:40:10.254Z,9.9
2024-02-08T22:42:36.934Z,10.3
2024-02-08T22:45:03.753Z,10.4
2024-02-08T22:47:30.618Z,10.5
2024-02-08T22:49:57.565Z,10.6
2024-02-08T22:52:24.367Z,10.7
2024-02-08T22:54:49.694Z,10.7
2024-02-08T22:57:16.591Z,10.7
2024-02-08T22:59:43.584Z,10.7
2024-02-08T23:02:10.232Z,10.7
2024-02-08T23:04:37.041Z,10.7
2024-02-08T23:07:03.969Z,10.7
2024-02-08T23:09:30.967Z,10.6
2024-02-08T23:11:57.591Z,10.5
2024-02-08T23:14:24.474Z,10.4
2024-02-08T23:16:51.239Z,10.3
2024-02-08T23:19:18.229Z,10.3
2024-02-08T23:21:44.935Z,10.2
2024-02-08T23:24:11.758Z,10.1
2024-02-08T23:26:37.176Z,10
2024-02-08T23:29:04.159Z,9.9
2024-02-08T23:31:30.852Z,9.8
2024-02-08T23:33:57.692Z,9.8
2024-02-08T23:36:24.591Z,9.8
2024-02-08T23:38:51.380Z,9.9
2024-02-08T23:41:18.330Z,10.2
2024-02-08T23:43:45.088Z,10.3
2024-02-08T23:46:11.901Z,10.3
2024-02-08T23:48:38.734Z,10.3
2024-02-08T23:51:05.662Z,10.1
2024-02-08T23:53:32.420Z,9.9
2024-02-08T23:55:59.249Z,9.7
2024-02-08T23:58:26.172Z,9.6
